Time;durP1;ratioP1;P1;durP2;ratioP2;P2;SDS_P1;SDS_P2;PMS_P1;PMS_P2;Temp;Humidity;BMP_temperature;BMP_pressure;BME280_temperature;BME280_humidity;BME280_pressure;Samples;Min_cycle;Max_cycle;Signal;HPM_P1;HPM_P2
2023/01/06 00:00:22;;;;;;;1.93;1.60;;;;;;;11.06;100.00;100909.44;4995893;28;20309;-74
2023/01/06 00:02:48;;;;;;;1.70;1.60;;;;;;;11.06;100.00;100902.53;4991219;28;20372;-75
2023/01/06 00:05:13;;;;;;;1.60;1.50;;;;;;;11.08;100.00;100905.13;4992435;28;20191;-74
2023/01/06 00:07:39;;;;;;;1.60;1.50;;;;;;;11.09;100.00;100901.69;4991474;28;20187;-74
2023/01/06 00:10:06;;;;;;;1.40;1.30;;;;;;;11.10;100.00;100893.91;4995752;28;20180;-75
2023/01/06 00:12:31;;;;;;;2.07;1.50;;;;;;;11.10;100.00;100887.88;4992413;28;20443;-74
2023/01/06 00:14:57;;;;;;;1.30;1.20;;;;;;;11.11;100.00;100884.41;4991127;28;20191;-74
2023/01/06 00:17:22;;;;;;;1.13;1.03;;;;;;;11.09;100.00;100883.56;4993657;28;20691;-73
2023/01/06 00:19:48;;;;;;;1.57;1.43;;;;;;;11.10;100.00;100878.34;4988510;28;20223;-74
2023/01/06 00:22:13;;;;;;;1.77;1.20;;;;;;;11.10;100.00;100875.75;4992549;28;20354;-74
2023/01/06 00:24:38;;;;;;;1.77;1.23;;;;;;;11.11;100.00;100876.66;4996493;28;20308;-73
2023/01/06 00:27:04;;;;;;;2.20;1.50;;;;;;;11.08;100.00;100869.72;4993853;28;20191;-74
2023/01/06 00:29:29;;;;;;;1.47;1.30;;;;;;;11.06;100.00;100878.38;4993075;28;20181;-74
2023/01/06 00:31:59;;;;;;;1.40;1.20;;;;;;;11.06;100.00;100870.59;4992888;28;20211;-73
2023/01/06 00:34:24;;;;;;;1.70;1.50;;;;;;;11.05;100.00;100869.72;4997732;28;20188;-74
2023/01/06 00:36:49;;;;;;;1.70;1.60;;;;;;;11.05;100.00;100874.91;4990544;28;20279;-75
2023/01/06 00:39:15;;;;;;;1.77;1.30;;;;;;;11.06;100.00;100871.44;5001301;28;20204;-74
2023/01/06 00:44:24;;;;;;;1.33;1.20;;;;;;;11.07;100.00;100872.31;5025332;28;20806;-75
2023/01/06 00:46:50;;;;;;;1.70;1.20;;;;;;;11.08;100.00;100874.06;5006092;28;20196;-74
2023/01/06 00:49:16;;;;;;;1.07;0.97;;;;;;;11.09;100.00;100868.00;5006950;28;20268;-74
2023/01/06 00:51:41;;;;;;;1.40;1.30;;;;;;;11.10;100.00;100872.34;5003277;28;20707;-74
2023/01/06 00:54:09;;;;;;;1.40;1.17;;;;;;;11.10;100.00;100868.00;5008180;28;20180;-76
2023/01/06 00:56:45;;;;;;;1.60;1.33;;;;;;;11.11;100.00;100861.09;5005236;28;20193;-74
2023/01/06 00:59:13;;;;;;;1.80;1.30;;;;;;;11.11;100.00;100853.34;5006064;28;20208;-74
2023/01/06 01:01:39;;;;;;;1.53;1.43;;;;;;;11.12;100.00;100853.31;5010143;28;20220;-75
2023/01/06 01:04:05;;;;;;;2.47;1.53;;;;;;;11.09;100.00;100853.31;5005434;28;20215;-75
2023/01/06 01:06:31;;;;;;;1.33;1.23;;;;;;;11.02;100.00;100850.75;5001243;28;20218;-75
2023/01/06 01:08:58;;;;;;;1.87;1.33;;;;;;;10.89;100.00;100853.34;5008701;28;20181;-75
2023/01/06 01:14:09;;;;;;;1.40;1.30;;;;;;;10.77;100.00;100851.63;5003487;28;20199;-75
2023/01/06 01:16:35;;;;;;;1.37;1.20;;;;;;;10.79;100.00;100857.69;4998256;28;20275;-74
2023/01/06 01:19:01;;;;;;;1.90;1.40;;;;;;;10.81;100.00;100861.13;5000862;28;20215;-74
2023/01/06 01:21:26;;;;;;;1.83;1.50;;;;;;;10.84;100.00;100862.84;5001405;28;20212;-74
2023/01/06 01:23:52;;;;;;;3.10;1.77;;;;;;;10.86;100.00;100858.53;5001399;28;20652;-73
2023/01/06 01:26:17;;;;;;;2.33;1.70;;;;;;;10.87;100.00;100862.84;4998487;28;20568;-74
2023/01/06 01:28:43;;;;;;;2.47;1.80;;;;;;;10.88;100.00;100864.56;5000771;28;20560;-74
2023/01/06 01:31:08;;;;;;;1.73;1.53;;;;;;;10.90;100.00;100857.66;4996765;28;20215;-74
2023/01/06 01:33:34;;;;;;;1.73;1.47;;;;;;;10.91;100.00;100869.75;5002715;28;20632;-74
2023/01/06 01:36:12;;;;;;;1.97;1.60;;;;;;;10.93;100.00;100860.25;5002442;28;20228;-74
2023/01/06 01:38:37;;;;;;;1.87;1.60;;;;;;;10.94;100.00;100864.59;4995264;28;20712;-74
2023/01/06 01:41:02;;;;;;;2.10;1.47;;;;;;;10.94;100.00;100863.69;4998079;28;20227;-74
2023/01/06 01:43:48;;;;;;;1.57;1.47;;;;;;;10.94;100.00;100855.94;4998900;28;20192;-73
2023/01/06 01:46:18;;;;;;;1.73;1.40;;;;;;;10.94;100.00;100854.22;5020380;28;20667;-74
2023/01/06 01:48:44;;;;;;;1.80;1.50;;;;;;;10.94;100.00;100853.34;4995592;28;20193;-74
2023/01/06 01:51:12;;;;;;;2.13;1.70;;;;;;;10.94;100.00;100853.34;4997204;28;20219;-75
2023/01/06 01:53:42;;;;;;;1.77;1.20;;;;;;;10.94;100.00;100854.22;4998150;28;20196;-75
2023/01/06 01:56:12;;;;;;;2.10;1.30;;;;;;;10.95;100.00;100857.66;4998128;28;20279;-75
2023/01/06 01:58:52;;;;;;;1.93;1.30;;;;;;;10.96;100.00;100856.78;5000313;28;21315;-75
2023/01/06 02:01:17;;;;;;;1.33;1.13;;;;;;;10.96;100.00;100854.22;4995170;28;20213;-76
2023/01/06 02:03:43;;;;;;;2.23;1.50;;;;;;;10.95;100.00;100850.78;4996929;28;20181;-75
2023/01/06 02:06:18;;;;;;;1.50;1.40;;;;;;;10.95;100.00;100852.47;5001748;28;20267;-74
2023/01/06 02:08:47;;;;;;;2.10;1.47;;;;;;;10.97;100.00;100855.94;4990267;28;20502;-75
2023/01/06 02:11:12;;;;;;;1.50;1.27;;;;;;;10.96;100.00;100847.31;5003109;28;20209;-75
2023/01/06 02:13:40;;;;;;;1.70;1.40;;;;;;;10.98;100.00;100847.31;4995842;28;20320;-75
2023/01/06 02:16:16;;;;;;;1.47;1.03;;;;;;;10.99;100.00;100856.81;4995040;28;20653;-75
2023/01/06 02:18:47;;;;;;;1.30;1.20;;;;;;;11.02;100.00;100853.34;4999099;28;20648;-74
2023/01/06 02:21:27;;;;;;;1.43;1.20;;;;;;;11.04;100.00;100849.88;4998407;28;20221;-75
2023/01/06 02:23:56;;;;;;;0.93;0.90;;;;;;;11.05;100.00;100853.34;4999702;28;21047;-74
2023/01/06 02:26:42;;;;;;;1.63;1.20;;;;;;;11.07;100.00;100851.59;5001181;28;20216;-75
2023/01/06 02:29:39;;;;;;;1.20;1.10;;;;;;;11.08;100.00;100854.19;4994163;28;20194;-75
2023/01/06 02:32:24;;;;;;;1.40;1.20;;;;;;;11.11;100.00;100866.28;4996487;28;20214;-74
2023/01/06 02:35:13;;;;;;;1.57;1.17;;;;;;;11.11;100.00;100859.38;4995545;28;20291;-74
2023/01/06 02:37:49;;;;;;;1.67;1.47;;;;;;;11.13;100.00;100862.81;4998485;28;20219;-75
2023/01/06 02:40:29;;;;;;;1.40;1.30;;;;;;;11.14;100.00;100866.25;4999329;28;20206;-74
2023/01/06 02:43:29;;;;;;;1.47;1.37;;;;;;;11.16;100.00;100858.50;5000378;28;20935;-74
2023/01/06 02:46:23;;;;;;;2.10;1.80;;;;;;;11.16;100.00;100861.94;5002607;28;20191;-74
2023/01/06 02:49:13;;;;;;;2.00;1.77;;;;;;;11.13;100.00;100862.81;4999486;28;20263;-74
2023/01/06 02:51:47;;;;;;;1.83;1.60;;;;;;;11.11;100.00;100859.38;5013059;28;20217;-75
2023/01/06 02:54:24;;;;;;;2.70;1.80;;;;;;;11.09;100.00;100866.28;5034493;28;20173;-74
2023/01/06 02:57:15;;;;;;;2.00;1.90;;;;;;;11.07;100.00;100868.00;5009852;28;20295;-75
2023/01/06 02:59:51;;;;;;;3.27;1.80;;;;;;;11.06;100.00;100868.00;4996445;28;20228;-74
2023/01/06 03:02:18;;;;;;;2.13;1.70;;;;;;;11.03;100.00;100852.47;4995148;28;20315;-75
2023/01/06 03:04:47;;;;;;;1.90;1.80;;;;;;;11.02;100.00;100861.09;5001658;28;20181;-75
2023/01/06 03:07:14;;;;;;;1.93;1.83;;;;;;;11.00;100.00;100861.13;5007492;28;20188;-74
2023/01/06 03:09:40;;;;;;;2.17;2.00;;;;;;;11.00;100.00;100863.72;4993796;28;20199;-75
2023/01/06 03:12:14;;;;;;;3.53;2.53;;;;;;;11.01;100.00;100859.38;5007550;28;20219;-74
2023/01/06 03:14:45;;;;;;;2.40;2.00;;;;;;;10.93;100.00;100854.22;4992240;28;20664;-74
2023/01/06 03:17:11;;;;;;;2.73;2.47;;;;;;;10.81;100.00;100858.53;4999025;28;20197;-75
2023/01/06 03:19:37;;;;;;;2.13;1.93;;;;;;;10.74;100.00;100849.03;4995949;28;20220;-75
2023/01/06 03:22:05;;;;;;;2.70;2.50;;;;;;;10.67;100.00;100853.34;4995015;28;20264;-74
2023/01/06 03:24:30;;;;;;;2.70;2.50;;;;;;;10.64;100.00;100857.69;4994990;28;20176;-75
2023/01/06 03:26:56;;;;;;;2.77;2.57;;;;;;;10.62;100.00;100855.09;4996087;28;20576;-75
2023/01/06 03:29:22;;;;;;;3.30;3.03;;;;;;;10.59;100.00;100846.47;4999131;28;20239;-74
2023/01/06 03:31:59;;;;;;;3.73;2.70;;;;;;;10.59;100.00;100846.47;5000673;28;20213;-75
2023/01/06 03:34:52;;;;;;;3.50;2.80;;;;;;;10.55;100.00;100855.09;4994650;28;20235;-74
2023/01/06 03:38:02;;;;;;;2.80;2.60;;;;;;;10.52;100.00;100861.13;4995041;28;20200;-74
2023/01/06 03:40:28;;;;;;;2.67;2.47;;;;;;;10.49;100.00;100858.56;5000577;28;20226;-74
2023/01/06 03:43:12;;;;;;;2.63;2.43;;;;;;;10.48;100.00;100856.81;5001622;28;20659;-77
2023/01/06 03:46:14;;;;;;;2.63;2.43;;;;;;;10.47;100.00;100855.94;5000744;28;20229;-75
2023/01/06 03:49:01;;;;;;;2.90;2.70;;;;;;;10.46;100.00;100854.22;4995321;28;20220;-74
2023/01/06 03:51:45;;;;;;;3.30;2.93;;;;;;;10.45;100.00;100856.81;4993315;28;20211;-74
2023/01/06 03:54:34;;;;;;;3.17;2.87;;;;;;;10.43;100.00;100863.72;4997696;28;20664;-74
2023/01/06 03:57:14;;;;;;;3.10;2.90;;;;;;;10.42;100.00;100854.22;4990288;28;20227;-73
2023/01/06 03:59:53;;;;;;;2.80;2.60;;;;;;;10.40;100.00;100859.41;4990548;28;20209;-73
2023/01/06 04:02:21;;;;;;;3.03;2.80;;;;;;;10.40;100.00;100854.22;4995921;28;20323;-75
2023/01/06 04:05:23;;;;;;;3.77;3.27;;;;;;;10.39;100.00;100855.09;4996071;28;20190;-75
2023/01/06 04:07:49;;;;;;;3.27;3.03;;;;;;;10.37;100.00;100854.19;5005376;28;20249;-74
2023/01/06 04:10:16;;;;;;;3.67;3.37;;;;;;;10.37;100.00;100849.88;5001353;28;20895;-74
2023/01/06 04:12:42;;;;;;;3.53;3.23;;;;;;;10.36;100.00;100847.28;4995364;28;20216;-74
2023/01/06 04:15:16;;;;;;;3.60;3.30;;;;;;;10.36;100.00;100853.31;4993549;28;21156;-74
2023/01/06 04:17:43;;;;;;;3.70;3.40;;;;;;;10.34;100.00;100844.72;4993277;28;20193;-74
2023/01/06 04:20:12;;;;;;;3.30;2.97;;;;;;;10.33;100.00;100839.53;4993854;28;20743;-75
2023/01/06 04:22:38;;;;;;;3.23;2.97;;;;;;;10.33;100.00;100843.00;4996023;28;20208;-75
2023/01/06 04:25:04;;;;;;;3.67;3.37;;;;;;;10.34;100.00;100842.13;5000702;28;20185;-74
2023/01/06 04:27:29;;;;;;;3.57;3.27;;;;;;;10.34;100.00;100838.66;5013603;28;20180;-74
2023/01/06 04:29:55;;;;;;;3.60;3.30;;;;;;;10.33;100.00;100839.53;4996327;28;20188;-74
2023/01/06 04:32:20;;;;;;;3.83;3.53;;;;;;;10.33;100.00;100836.94;4993010;28;20250;-75
2023/01/06 04:34:45;;;;;;;3.97;3.67;;;;;;;10.32;100.00;100830.91;4992945;28;20200;-75
2023/01/06 04:37:11;;;;;;;3.40;3.20;;;;;;;10.33;100.00;100829.16;4994572;28;20196;-74
2023/01/06 04:39:37;;;;;;;4.13;3.40;;;;;;;10.31;100.00;100818.84;4995023;28;20300;-75
2023/01/06 04:42:02;;;;;;;3.40;3.10;;;;;;;10.32;100.00;100817.09;4997084;28;20217;-74
2023/01/06 04:44:28;;;;;;;3.67;3.17;;;;;;;10.30;100.00;100816.22;5002240;28;20281;-75
2023/01/06 04:46:53;;;;;;;2.90;2.70;;;;;;;10.29;100.00;100805.03;5002336;28;20559;-74
2023/01/06 04:49:18;;;;;;;2.60;2.40;;;;;;;10.26;100.00;100804.19;5003948;28;20656;-75
2023/01/06 04:51:44;;;;;;;3.10;2.80;;;;;;;10.25;100.00;100813.63;5004746;28;20209;-75
2023/01/06 04:54:09;;;;;;;3.43;3.00;;;;;;;10.25;100.00;100813.63;5005500;28;20218;-74
2023/01/06 04:56:34;;;;;;;3.13;2.90;;;;;;;10.23;100.00;100810.19;5000070;28;20210;-74
2023/01/06 04:59:00;;;;;;;3.77;2.90;;;;;;;10.22;100.00;100808.47;4994292;28;20272;-75
2023/01/06 05:01:26;;;;;;;3.93;3.63;;;;;;;10.19;100.00;100809.34;5003447;28;20213;-75
2023/01/06 05:03:51;;;;;;;4.33;3.93;;;;;;;10.17;100.00;100805.03;5043030;28;20179;-75
2023/01/06 05:06:17;;;;;;;4.27;3.87;;;;;;;10.16;100.00;100798.97;5034470;28;20205;-74
2023/01/06 05:08:44;;;;;;;4.70;4.17;;;;;;;10.14;100.00;100799.84;5002828;28;20835;-75
2023/01/06 05:11:18;;;;;;;4.47;4.10;;;;;;;10.12;100.00;100797.28;5000163;28;20221;-75
2023/01/06 05:13:44;;;;;;;4.50;4.20;;;;;;;10.10;100.00;100798.09;4998267;28;20196;-74
2023/01/06 05:16:33;;;;;;;5.07;4.57;;;;;;;10.14;100.00;100795.53;4996876;28;20247;-75
2023/01/06 05:18:59;;;;;;;4.60;4.20;;;;;;;10.10;100.00;100796.41;4995854;28;20193;-74
2023/01/06 05:21:27;;;;;;;4.80;4.27;;;;;;;10.09;100.00;100805.00;5000800;28;20208;-74
2023/01/06 05:23:53;;;;;;;4.80;4.40;;;;;;;10.09;100.00;100805.00;4991461;28;20194;-75
2023/01/06 05:26:21;;;;;;;5.17;4.77;;;;;;;10.10;100.00;100800.69;4999101;28;20201;-74
2023/01/06 05:28:47;;;;;;;4.67;4.27;;;;;;;10.07;100.00;100792.06;4996635;28;20644;-74
2023/01/06 05:31:13;;;;;;;4.70;4.30;;;;;;;10.10;100.00;100795.53;4997086;28;20259;-74
2023/01/06 05:33:38;;;;;;;4.83;4.40;;;;;;;10.07;100.00;100796.38;4997047;28;20189;-74
2023/01/06 05:36:09;;;;;;;5.03;4.50;;;;;;;10.06;100.00;100792.91;4999959;28;20200;-75
2023/01/06 05:38:35;;;;;;;4.00;3.70;;;;;;;10.06;100.00;100802.41;5001459;28;20226;-74
2023/01/06 05:41:00;;;;;;;4.03;3.73;;;;;;;10.06;100.00;100799.84;5002363;28;20251;-74
2023/01/06 05:43:26;;;;;;;4.00;3.70;;;;;;;10.04;100.00;100796.38;5001823;28;20620;-74
2023/01/06 05:45:52;;;;;;;4.37;3.97;;;;;;;10.05;100.00;100811.03;4997052;28;20574;-73
2023/01/06 05:48:18;;;;;;;4.20;3.90;;;;;;;10.02;100.00;100808.44;5001378;28;20536;-75
2023/01/06 05:50:44;;;;;;;4.10;3.70;;;;;;;10.00;100.00;100818.78;5001275;28;20653;-73
2023/01/06 05:53:09;;;;;;;3.90;3.60;;;;;;;9.99;100.00;100811.88;5001105;28;20199;-74
2023/01/06 05:55:35;;;;;;;4.40;4.00;;;;;;;9.98;100.00;100817.91;4998227;28;22150;-73
2023/01/06 05:58:00;;;;;;;3.90;3.60;;;;;;;9.97;100.00;100816.19;4994990;28;20288;-74
2023/01/06 06:00:26;;;;;;;4.03;3.73;;;;;;;9.96;100.00;100821.38;4995983;28;20279;-73
2023/01/06 06:02:51;;;;;;;3.27;2.97;;;;;;;9.97;100.00;100808.44;4998012;28;20236;-74
2023/01/06 06:05:16;;;;;;;4.10;3.70;;;;;;;10.00;100.00;100828.25;4994009;28;20197;-75
2023/01/06 06:07:42;;;;;;;3.43;3.13;;;;;;;9.99;100.00;100827.41;4995112;28;20715;-75
2023/01/06 06:10:08;;;;;;;3.03;2.83;;;;;;;9.99;100.00;100837.75;4994596;28;20189;-73
2023/01/06 06:12:34;;;;;;;3.70;3.40;;;;;;;10.01;100.00;100838.63;4990471;28;20227;-74
2023/01/06 06:14:59;;;;;;;3.20;3.00;;;;;;;10.03;100.00;100836.91;4996107;28;20205;-74
2023/01/06 06:17:24;;;;;;;3.17;2.97;;;;;;;10.04;100.00;100841.22;4994415;28;20193;-74
2023/01/06 06:19:50;;;;;;;3.07;2.87;;;;;;;10.07;100.00;100845.53;4994182;28;20203;-74
2023/01/06 06:22:15;;;;;;;3.60;3.30;;;;;;;10.06;100.00;100847.22;4994888;28;20217;-73
2023/01/06 06:24:41;;;;;;;3.70;3.40;;;;;;;10.07;100.00;100848.97;4995254;28;20287;-74
2023/01/06 06:27:06;;;;;;;3.40;3.20;;;;;;;10.06;100.00;100849.81;4998756;28;20292;-74
2023/01/06 06:29:31;;;;;;;5.27;3.77;;;;;;;10.07;100.00;100854.13;4990143;28;20193;-74
2023/01/06 06:31:57;;;;;;;4.40;4.00;;;;;;;10.10;100.00;100857.59;4994062;28;20236;-74
2023/01/06 06:34:22;;;;;;;4.00;3.70;;;;;;;10.06;100.00;100864.47;4995450;28;20228;-75
2023/01/06 06:36:47;;;;;;;4.50;4.10;;;;;;;10.06;100.00;100869.66;4997746;28;20197;-74
2023/01/06 06:39:13;;;;;;;4.47;4.07;;;;;;;10.06;100.00;100865.34;4998075;28;20271;-74
2023/01/06 06:41:38;;;;;;;4.77;4.47;;;;;;;10.05;100.00;100868.81;4996114;28;20220;-74
2023/01/06 06:44:04;;;;;;;4.80;4.40;;;;;;;10.06;100.00;100867.91;4989105;28;20192;-73
2023/01/06 06:46:29;;;;;;;5.50;5.10;;;;;;;10.05;100.00;100870.50;4999054;28;20664;-74
2023/01/06 06:48:55;;;;;;;5.20;4.80;;;;;;;10.01;100.00;100869.66;4996356;28;20228;-74
2023/01/06 06:51:21;;;;;;;5.13;4.73;;;;;;;10.04;100.00;100871.38;4992705;28;20245;-71
2023/01/06 06:53:46;;;;;;;4.93;4.53;;;;;;;10.00;100.00;100870.50;4996215;28;20188;-73
2023/01/06 06:56:13;;;;;;;4.33;4.03;;;;;;;9.98;100.00;100868.78;4998675;28;20188;-74
2023/01/06 06:58:38;;;;;;;4.60;4.23;;;;;;;9.97;100.00;100873.06;4997091;28;20655;-75
2023/01/06 07:01:10;;;;;;;4.90;4.50;;;;;;;10.00;100.00;100877.38;4997046;28;20271;-74
2023/01/06 07:03:36;;;;;;;4.37;3.97;;;;;;;9.96;100.00;100886.00;4997122;28;20731;-75
2023/01/06 07:06:03;;;;;;;4.53;4.23;;;;;;;9.95;100.00;100884.28;4996927;28;20188;-74
2023/01/06 07:08:31;;;;;;;4.63;4.23;;;;;;;9.93;100.00;100889.44;4998432;28;20562;-75
2023/01/06 07:10:57;;;;;;;4.50;4.20;;;;;;;9.91;100.00;100888.56;4999540;28;20204;-74
2023/01/06 07:13:22;;;;;;;4.57;4.17;;;;;;;9.90;100.00;100890.28;5013796;28;20165;-74
2023/01/06 07:15:47;;;;;;;4.97;4.57;;;;;;;9.87;100.00;100882.53;5036426;28;20177;-75
2023/01/06 07:18:13;;;;;;;5.07;4.67;;;;;;;9.87;100.00;100889.44;5015984;28;20192;-74
2023/01/06 07:20:38;;;;;;;4.83;4.43;;;;;;;9.86;100.00;100896.31;5000999;28;20204;-75
2023/01/06 07:23:04;;;;;;;5.03;4.63;;;;;;;9.85;100.00;100909.25;4997495;28;20694;-75
2023/01/06 07:25:30;;;;;;;4.20;3.90;;;;;;;9.83;100.00;100906.63;5002893;28;20294;-74
2023/01/06 07:27:57;;;;;;;4.00;3.70;;;;;;;9.83;100.00;100909.22;5003769;28;20221;-74
2023/01/06 07:30:23;;;;;;;4.03;3.73;;;;;;;9.82;100.00;100904.94;5005719;28;20188;-75
2023/01/06 07:32:49;;;;;;;4.10;3.80;;;;;;;9.83;100.00;100903.19;4999886;28;20293;-74
2023/01/06 07:35:15;;;;;;;3.70;3.40;;;;;;;9.82;100.00;100901.47;4997903;28;20263;-74
2023/01/06 07:37:41;;;;;;;3.77;3.47;;;;;;;9.85;100.00;100898.91;4999969;28;20656;-74
2023/01/06 07:40:06;;;;;;;4.03;3.63;;;;;;;9.83;100.00;100901.47;4994428;28;20624;-74
2023/01/06 07:42:32;;;;;;;3.90;3.60;;;;;;;9.85;100.00;100902.34;4994775;28;20290;-74
2023/01/06 07:44:57;;;;;;;3.67;3.37;;;;;;;9.86;100.00;100906.66;4992259;28;20204;-74
2023/01/06 07:47:22;;;;;;;3.67;3.37;;;;;;;9.87;100.00;100908.38;4994088;28;20319;-74
2023/01/06 07:49:48;;;;;;;3.87;3.57;;;;;;;9.87;100.00;100905.78;4989470;28;20656;-74
2023/01/06 07:52:13;;;;;;;4.00;3.70;;;;;;;9.91;100.00;100902.38;4997097;28;20713;-76
2023/01/06 07:54:38;;;;;;;4.00;3.60;;;;;;;9.93;100.00;100907.53;4998208;28;20735;-75
2023/01/06 07:57:03;;;;;;;3.77;3.47;;;;;;;9.96;100.00;100904.97;5000062;28;20284;-74
2023/01/06 07:59:29;;;;;;;4.17;3.80;;;;;;;10.01;100.00;100916.19;4999846;28;20623;-74
2023/01/06 08:01:54;;;;;;;4.67;4.27;;;;;;;10.05;100.00;100915.34;5000464;28;20196;-74
2023/01/06 08:04:19;;;;;;;4.17;3.80;;;;;;;10.09;100.00;100915.34;5003096;28;20214;-75
2023/01/06 08:06:45;;;;;;;4.40;4.10;;;;;;;10.11;100.00;100916.22;4999324;28;20712;-75
2023/01/06 08:09:10;;;;;;;4.00;3.70;;;;;;;10.13;100.00;100922.25;5001642;28;20227;-74
2023/01/06 08:11:35;;;;;;;4.70;4.30;;;;;;;10.15;100.00;100917.97;5002452;28;20208;-74
2023/01/06 08:14:01;;;;;;;4.70;4.30;;;;;;;10.16;100.00;100920.53;5000243;28;20193;-75
2023/01/06 08:16:26;;;;;;;4.20;3.90;;;;;;;10.20;100.00;100919.69;5000499;28;20267;-75
2023/01/06 08:18:51;;;;;;;4.33;4.03;;;;;;;10.19;100.00;100917.13;4999684;28;20212;-74
2023/01/06 08:21:16;;;;;;;4.37;4.00;;;;;;;10.18;100.00;100917.97;4996857;28;20229;-76
2023/01/06 08:23:42;;;;;;;3.83;3.53;;;;;;;10.28;100.00;100924.03;4999253;28;20267;-73
2023/01/06 08:26:13;;;;;;;4.27;3.97;;;;;;;10.35;100.00;100929.22;5004794;28;20263;-73
2023/01/06 08:28:39;;;;;;;4.40;4.00;;;;;;;10.47;100.00;100935.31;5001933;28;20306;-73
2023/01/06 08:31:08;;;;;;;3.87;3.57;;;;;;;10.53;100.00;100937.91;4998384;28;20211;-73
2023/01/06 08:33:34;;;;;;;3.77;3.47;;;;;;;10.60;100.00;100936.19;5001599;28;20602;-72
2023/01/06 08:36:00;;;;;;;3.83;3.50;;;;;;;10.63;100.00;100933.59;4996452;28;20212;-74
2023/01/06 08:38:27;;;;;;;3.20;3.00;;;;;;;10.67;100.00;100935.34;5000138;28;20253;-74
2023/01/06 08:40:53;;;;;;;3.33;3.03;;;;;;;10.72;100.00;100928.44;4995363;28;20433;-73
2023/01/06 08:43:19;;;;;;;4.13;3.00;;;;;;;10.81;100.00;100933.63;5000607;28;21257;-73
2023/01/06 08:45:44;;;;;;;3.10;2.80;;;;;;;10.87;100.00;100930.16;4997752;28;20263;-74
2023/01/06 08:48:09;;;;;;;3.20;2.90;;;;;;;10.96;100.00;100937.09;4999581;28;20181;-73
2023/01/06 08:50:37;;;;;;;3.30;3.00;;;;;;;11.05;100.00;100936.22;5001563;28;20201;-73
2023/01/06 08:53:03;;;;;;;3.27;3.00;;;;;;;11.16;100.00;100942.25;4995502;28;20200;-75
2023/01/06 08:55:28;;;;;;;2.87;2.67;;;;;;;11.26;100.00;100940.50;5001081;28;20564;-73
2023/01/06 08:57:53;;;;;;;2.37;2.17;;;;;;;11.35;100.00;100943.06;4993897;28;20662;-74
2023/01/06 09:00:19;;;;;;;2.60;2.40;;;;;;;11.47;100.00;100943.94;4999982;28;20201;-74
2023/01/06 09:02:44;;;;;;;2.43;2.23;;;;;;;11.63;100.00;100953.41;4990892;28;21026;-74
2023/01/06 09:05:09;;;;;;;2.17;2.00;;;;;;;11.78;100.00;100954.22;4990028;28;20306;-74
2023/01/06 09:07:35;;;;;;;2.10;2.00;;;;;;;11.92;100.00;100954.16;4991824;28;20642;-72
2023/01/06 09:10:00;;;;;;;1.50;1.40;;;;;;;12.00;100.00;100961.09;4978102;28;20188;-72
2023/01/06 09:12:25;;;;;;;1.70;1.60;;;;;;;12.03;100.00;100960.19;5000222;28;20206;-74
2023/01/06 09:14:51;;;;;;;1.27;1.17;;;;;;;11.99;100.00;100972.31;4986064;28;20281;-71
2023/01/06 09:17:16;;;;;;;1.60;1.20;;;;;;;11.98;100.00;100977.50;4987343;28;20202;-73
2023/01/06 09:19:42;;;;;;;1.20;1.10;;;;;;;11.92;100.00;100973.19;4990551;28;20620;-74
2023/01/06 09:22:07;;;;;;;1.40;1.20;;;;;;;11.89;100.00;100971.47;4995522;28;20216;-74
2023/01/06 09:24:32;;;;;;;1.23;1.10;;;;;;;11.87;100.00;100968.00;5011578;28;20178;-75
2023/01/06 09:26:58;;;;;;;1.10;1.00;;;;;;;11.88;100.00;100964.56;5027747;28;20232;-74
2023/01/06 09:29:23;;;;;;;1.27;1.10;;;;;;;11.93;100.00;100961.97;5012919;28;20193;-74
2023/01/06 09:31:48;;;;;;;1.03;1.00;;;;;;;11.96;100.00;100958.47;5001801;28;20931;-74
2023/01/06 09:34:14;;;;;;;1.63;1.10;;;;;;;11.96;100.00;100954.16;5002942;28;20280;-74
2023/01/06 09:36:39;;;;;;;1.50;1.00;;;;;;;11.93;100.00;100959.38;5003902;28;20189;-74
2023/01/06 09:39:04;;;;;;;1.00;0.80;;;;;;;11.91;100.00;100963.69;5004569;28;20258;-73
2023/01/06 09:41:50;;;;;;;1.40;0.97;;;;;;;11.88;100.00;100959.34;5003998;28;20208;-75
2023/01/06 09:44:35;;;;;;;0.90;0.90;;;;;;;11.92;100.00;100957.66;4998476;28;20587;-74
2023/01/06 09:47:02;;;;;;;1.43;0.90;;;;;;;11.95;100.00;100954.16;5002659;28;20190;-74
2023/01/06 09:49:27;;;;;;;1.30;1.20;;;;;;;11.96;100.00;100954.16;5001291;28;20276;-74
2023/01/06 09:51:58;;;;;;;1.47;1.37;;;;;;;12.01;100.00;100939.47;5003567;28;20296;-74
2023/01/06 09:54:40;;;;;;;1.27;1.10;;;;;;;12.01;100.00;100931.69;5006567;28;20656;-75
2023/01/06 09:57:12;;;;;;;1.20;1.10;;;;;;;12.07;100.00;100937.72;5005414;28;20315;-74
2023/01/06 09:59:48;;;;;;;1.40;1.30;;;;;;;12.13;100.00;100935.09;5004004;28;20214;-75
2023/01/06 10:02:21;;;;;;;1.53;1.03;;;;;;;12.26;100.00;100936.75;5002910;28;20274;-75
2023/01/06 10:04:47;;;;;;;1.37;1.17;;;;;;;12.45;100.00;100934.91;5003003;28;20563;-75
2023/01/06 10:07:24;;;;;;;1.83;1.30;;;;;;;12.69;100.00;100925.22;5005254;28;20191;-74
2023/01/06 10:10:00;;;;;;;1.03;1.00;;;;;;;12.92;100.00;100930.25;4996312;28;20646;-75
2023/01/06 10:12:44;;;;;;;1.17;1.07;;;;;;;13.11;100.00;100925.72;5002835;28;20213;-75
2023/01/06 10:15:23;;;;;;;1.50;1.30;;;;;;;13.30;100.00;100917.75;5002434;28;20184;-74
2023/01/06 10:18:07;;;;;;;1.37;1.27;;;;;;;13.45;100.00;100911.59;5003375;28;20248;-75
2023/01/06 10:21:02;;;;;;;1.57;1.47;;;;;;;13.53;100.00;100909.75;4997467;28;20206;-74
2023/01/06 10:23:52;;;;;;;1.60;1.50;;;;;;;13.48;100.00;100905.47;4998027;28;20216;-74
2023/01/06 10:26:28;;;;;;;2.73;1.40;;;;;;;13.41;100.00;100915.94;5005102;28;20184;-74
2023/01/06 10:29:00;;;;;;;3.87;2.07;;;;;;;13.33;100.00;100925.53;5003917;28;20693;-75
2023/01/06 10:31:31;;;;;;;1.40;1.30;;;;;;;13.29;100.00;100918.63;5012639;28;20633;-75
2023/01/06 10:33:58;;;;;;;1.30;1.20;;;;;;;13.16;100.00;100922.25;5002354;28;20187;-75
2023/01/06 10:36:38;;;;;;;1.20;1.00;;;;;;;13.06;100.00;100931.84;5000773;28;20201;-74
2023/01/06 10:39:07;;;;;;;0.80;0.80;;;;;;;12.90;100.00;100921.59;4996691;28;22057;-73
2023/01/06 10:41:51;;;;;;;0.80;0.80;;;;;;;12.70;100.00;100923.50;5005502;28;20698;-74
2023/01/06 10:44:17;;;;;;;1.60;1.10;;;;;;;12.55;100.00;100922.75;4991461;28;20205;-76
2023/01/06 10:46:44;;;;;;;1.03;0.93;;;;;;;12.52;100.00;100917.56;4995555;28;20199;-73
2023/01/06 10:49:17;;;;;;;1.70;1.60;;;;;;;12.57;100.00;100920.13;4993301;28;20300;-72
2023/01/06 10:51:50;;;;;;;1.70;1.30;;;;;;;12.68;100.00;100927.84;4997609;28;20233;-76
2023/01/06 10:54:22;;;;;;;2.23;1.20;;;;;;;12.85;100.00;100925.09;4998557;28;20294;-72
2023/01/06 10:56:54;;;;;;;1.63;0.80;;;;;;;12.95;100.00;100930.22;4997838;28;20736;-73
2023/01/06 10:59:19;;;;;;;0.67;0.67;;;;;;;13.06;100.00;100924.94;5011960;28;20187;-72
2023/01/06 11:01:55;;;;;;;2.83;2.07;;;;;;;13.16;100.00;100919.63;4997577;28;20204;-74
2023/01/06 11:04:22;;;;;;;1.90;1.70;;;;;;;13.26;100.00;100919.53;4993012;28;20226;-74
2023/01/06 11:06:54;;;;;;;2.00;1.80;;;;;;;13.37;100.00;100911.63;4990418;28;20277;-74
2023/01/06 11:09:28;;;;;;;2.33;2.13;;;;;;;13.45;100.00;100910.72;4996912;28;20198;-73
2023/01/06 11:11:57;;;;;;;1.70;1.40;;;;;;;13.37;100.00;100911.63;4991335;28;20218;-73
2023/01/06 11:14:28;;;;;;;1.40;1.20;;;;;;;13.36;100.00;100907.31;4993437;28;20617;-73
2023/01/06 11:16:58;;;;;;;2.13;1.93;;;;;;;13.33;100.00;100909.94;5012444;28;20195;-73
2023/01/06 11:19:42;;;;;;;1.73;1.63;;;;;;;13.37;100.00;100911.63;4990455;28;20200;-73
2023/01/06 11:22:34;;;;;;;1.20;1.10;;;;;;;13.41;100.00;100915.94;4996451;28;20779;-74
2023/01/06 11:25:00;;;;;;;2.50;1.40;;;;;;;13.43;100.00;100913.34;4991194;28;20203;-74
2023/01/06 11:27:25;;;;;;;3.10;2.73;;;;;;;13.41;100.00;100913.34;4995508;28;20203;-74
2023/01/06 11:29:51;;;;;;;3.97;3.53;;;;;;;13.49;100.00;100920.22;4993287;28;20191;-74
2023/01/06 11:32:19;;;;;;;3.67;3.03;;;;;;;13.59;100.00;100908.81;4998371;28;20216;-75
2023/01/06 11:34:55;;;;;;;4.70;4.20;;;;;;;13.57;100.00;100902.75;5020010;28;20199;-75